createdAt,value
2019-05-30T00:02:12.740Z,0.00
2019-05-30T00:07:16.512Z,0.00
2019-05-30T00:12:20.286Z,0.00
2019-05-30T00:17:24.057Z,0.00
2019-05-30T00:22:27.814Z,0.00
2019-05-30T00:27:31.574Z,0.00
2019-05-30T00:32:35.340Z,0.00
2019-05-30T00:37:39.093Z,0.00
2019-05-30T00:42:42.846Z,0.00
2019-05-30T00:47:46.619Z,0.00
2019-05-30T00:52:50.391Z,0.00
2019-05-30T00:57:54.169Z,0.00
2019-05-30T01:02:59.909Z,0.00
2019-05-30T01:08:03.482Z,0.00
2019-05-30T01:13:07.369Z,0.00
2019-05-30T01:18:11.089Z,0.00
2019-05-30T01:23:14.846Z,0.00
2019-05-30T01:28:18.606Z,0.00
2019-05-30T01:33:22.359Z,0.00
2019-05-30T01:38:26.153Z,0.00
2019-05-30T01:43:29.919Z,0.00
2019-05-30T01:48:33.686Z,0.00
2019-05-30T01:53:37.486Z,0.00
2019-05-30T01:58:41.272Z,0.00
2019-05-30T02:03:45.051Z,0.00
2019-05-30T02:08:48.899Z,0.00
2019-05-30T02:13:52.705Z,0.00
2019-05-30T02:18:56.496Z,0.00
2019-05-30T02:24:00.300Z,0.00
2019-05-30T02:29:04.210Z,0.00
2019-05-30T02:34:09.676Z,0.00
2019-05-30T02:39:13.505Z,0.00
2019-05-30T02:44:17.252Z,0.00
2019-05-30T02:49:21.038Z,0.00
2019-05-30T02:54:24.842Z,0.00
2019-05-30T02:59:28.617Z,0.00
2019-05-30T03:04:32.359Z,0.00
2019-05-30T03:09:36.179Z,0.00
2019-05-30T03:14:39.951Z,0.00
2019-05-30T03:19:43.733Z,0.00
2019-05-30T03:24:47.506Z,0.00
2019-05-30T03:29:51.286Z,0.00
2019-05-30T03:34:55.037Z,0.00
2019-05-30T03:39:58.812Z,0.00
2019-05-30T03:45:04.333Z,0.00
2019-05-30T03:50:09.770Z,0.00
2019-05-30T03:55:14.951Z,0.00
2019-05-30T04:00:28.079Z,0.00
2019-05-30T04:05:36.700Z,0.00
2019-05-30T04:10:41.086Z,0.00
2019-05-30T04:15:44.828Z,0.00
2019-05-30T04:20:48.598Z,0.00
2019-05-30T04:25:52.347Z,0.00
2019-05-30T04:30:56.110Z,0.00
2019-05-30T04:35:59.881Z,0.00
2019-05-30T04:41:03.670Z,0.00
2019-05-30T04:46:07.451Z,0.00
2019-05-30T04:51:12.539Z,0.00
2019-05-30T04:56:17.607Z,0.00
2019-05-30T05:01:22.431Z,0.00
2019-05-30T05:06:26.241Z,0.00
2019-05-30T05:11:30.037Z,0.00
2019-05-30T05:16:35.931Z,0.00
2019-05-30T05:21:39.267Z,0.00
2019-05-30T05:26:43.021Z,0.00
2019-05-30T05:31:46.788Z,0.00
2019-05-30T05:36:50.558Z,0.00
2019-05-30T05:41:54.330Z,0.00
2019-05-30T05:46:58.100Z,0.00
2019-05-30T05:52:01.892Z,0.00
2019-05-30T05:57:05.659Z,0.00
2019-05-30T06:02:10.336Z,0.00
2019-05-30T06:07:14.152Z,0.00
2019-05-30T06:12:17.918Z,0.00
2019-05-30T06:17:23.040Z,0.00
2019-05-30T06:22:27.624Z,0.00
2019-05-30T06:27:31.466Z,0.00
2019-05-30T06:32:35.252Z,0.00
2019-05-30T06:37:39.018Z,0.00
2019-05-30T06:42:42.774Z,0.00
2019-05-30T06:47:46.542Z,0.00
2019-05-30T06:52:50.306Z,0.00
2019-05-30T06:57:54.312Z,0.00
2019-05-30T07:02:58.141Z,0.00
2019-05-30T07:08:01.940Z,2.00
2019-05-30T07:13:05.712Z,2.00
2019-05-30T07:18:09.471Z,1.40
2019-05-30T07:23:13.235Z,1.20
2019-05-30T07:28:16.998Z,1.00
2019-05-30T07:33:20.824Z,2.50
2019-05-30T07:38:24.593Z,2.00
2019-05-30T07:43:30.170Z,2.80
2019-05-30T07:48:34.373Z,2.00
2019-05-30T07:53:39.174Z,2.25
2019-05-30T07:58:43.410Z,3.00
2019-05-30T08:03:47.177Z,3.00
2019-05-30T08:08:51.108Z,2.50
2019-05-30T08:13:54.876Z,3.00
2019-05-30T08:18:58.658Z,2.25
2019-05-30T08:24:02.428Z,2.80
2019-05-30T08:29:06.194Z,1.60
2019-05-30T08:34:09.946Z,1.75
2019-05-30T08:39:13.728Z,1.60
2019-05-30T08:44:17.510Z,2.25
2019-05-30T08:49:21.392Z,2.60
2019-05-30T08:54:25.208Z,2.50
2019-05-30T08:59:30.258Z,2.20
2019-05-30T09:04:34.085Z,2.00
2019-05-30T09:09:38.648Z,2.00
2019-05-30T09:14:42.887Z,1.00
2019-05-30T09:19:47.489Z,2.00
2019-05-30T09:24:51.303Z,1.00
2019-05-30T09:29:55.078Z,1.00
2019-05-30T09:34:58.905Z,1.00
2019-05-30T09:40:02.689Z,1.75
2019-05-30T09:45:06.715Z,1.00
2019-05-30T09:50:10.483Z,1.00
2019-05-30T09:55:14.355Z,1.00
2019-05-30T10:00:18.215Z,1.60
2019-05-30T10:05:24.350Z,1.00
2019-05-30T10:10:27.470Z,1.00
2019-05-30T10:15:31.334Z,1.00
2019-05-30T10:20:35.153Z,1.40
2019-05-30T10:25:39.042Z,0.60
2019-05-30T10:30:42.864Z,1.25
2019-05-30T10:35:47.521Z,0.25
2019-05-30T10:40:52.401Z,1.00
2019-05-30T10:45:57.419Z,1.00
2019-05-30T10:51:01.349Z,0.00
2019-05-30T10:56:05.266Z,0.80
2019-05-30T11:01:09.172Z,1.00
2019-05-30T11:06:18.900Z,1.00
2019-05-30T11:11:22.645Z,1.25
2019-05-30T11:16:26.408Z,1.60
2019-05-30T11:21:30.173Z,1.20
2019-05-30T11:26:34.031Z,1.20
2019-05-30T11:31:37.922Z,2.00
2019-05-30T11:36:41.786Z,1.00
2019-05-30T11:41:45.569Z,1.75
2019-05-30T11:46:49.357Z,1.00
2019-05-30T11:51:53.692Z,2.00
2019-05-30T11:56:58.126Z,1.00
2019-05-30T12:02:02.148Z,2.00
2019-05-30T12:07:05.949Z,1.60
2019-05-30T12:12:09.726Z,1.00
2019-05-30T12:17:13.519Z,2.00
2019-05-30T12:22:17.321Z,2.00
2019-05-30T12:27:21.184Z,2.00
2019-05-30T12:32:25.034Z,1.25
2019-05-30T12:37:28.989Z,2.00
2019-05-30T12:42:32.758Z,1.00
2019-05-30T12:47:36.553Z,1.00
2019-05-30T12:52:40.372Z,1.20
2019-05-30T12:57:44.211Z,2.00
2019-05-30T13:02:48.002Z,1.00
2019-05-30T13:07:51.861Z,1.00
2019-05-30T13:12:55.667Z,2.00
2019-05-30T13:17:59.471Z,1.00
2019-05-30T13:23:04.577Z,1.80
2019-05-30T13:28:08.733Z,2.00
2019-05-30T13:33:12.613Z,1.00
2019-05-30T13:38:26.103Z,2.00
2019-05-30T13:43:22.428Z,1.00
2019-05-30T13:48:26.243Z,1.00
2019-05-30T13:53:30.138Z,1.00
2019-05-30T13:58:33.900Z,1.00
2019-05-30T14:03:37.671Z,1.00
2019-05-30T14:08:42.188Z,1.00
2019-05-30T14:13:46.072Z,1.25
2019-05-30T14:18:49.853Z,1.00
2019-05-30T14:23:54.022Z,1.00
2019-05-30T14:28:57.853Z,1.00
2019-05-30T14:34:02.084Z,1.00
2019-05-30T14:39:06.916Z,0.60
2019-05-30T14:44:10.765Z,1.00
2019-05-30T14:49:14.637Z,1.00
2019-05-30T14:54:18.504Z,0.20
2019-05-30T14:59:22.392Z,1.00
2019-05-30T15:04:26.156Z,1.00
2019-05-30T15:09:29.923Z,1.00
2019-05-30T15:14:33.696Z,1.00
2019-05-30T15:19:37.540Z,1.00
2019-05-30T15:24:41.701Z,1.00
2019-05-30T15:29:45.505Z,1.00
2019-05-30T15:34:49.268Z,1.00
2019-05-30T15:39:53.242Z,1.00
2019-05-30T15:44:57.513Z,1.00
2019-05-30T15:50:01.361Z,0.00
2019-05-30T15:55:06.804Z,1.00
2019-05-30T16:00:11.910Z,1.00
2019-05-30T16:05:16.697Z,1.00
2019-05-30T16:10:21.070Z,1.00
2019-05-30T16:15:25.158Z,1.00
2019-05-30T16:20:28.922Z,1.00
2019-05-30T16:25:32.826Z,0.75
2019-05-30T16:30:36.621Z,1.00
2019-05-30T16:35:40.457Z,1.25
2019-05-30T16:40:44.270Z,1.00
2019-05-30T16:45:48.038Z,1.50
2019-05-30T16:50:52.109Z,0.80
2019-05-30T16:55:55.944Z,1.00
2019-05-30T17:01:01.072Z,1.00
2019-05-30T17:06:05.062Z,0.75
2019-05-30T17:11:09.060Z,1.20
2019-05-30T17:16:12.992Z,2.00
2019-05-30T17:21:16.803Z,2.00
2019-05-30T17:26:21.222Z,2.00
2019-05-30T17:31:26.163Z,1.60
2019-05-30T17:36:30.027Z,2.00
2019-05-30T17:41:33.842Z,1.00
2019-05-30T17:46:37.619Z,1.60
2019-05-30T18:19:37.480Z,2.00
2019-05-30T18:24:41.259Z,2.60
2019-05-30T18:29:45.042Z,3.00
2019-05-30T18:34:48.869Z,3.80
2019-05-30T18:39:52.835Z,3.00
2019-05-30T18:44:56.670Z,2.60
2019-05-30T18:50:00.567Z,3.00
2019-05-30T18:55:05.537Z,4.60
2019-05-30T19:00:10.604Z,5.00
2019-05-30T19:10:36.574Z,4.00
2019-05-30T19:15:40.630Z,3.75
2019-05-30T19:20:44.399Z,4.50
2019-05-30T19:25:48.207Z,4.50
2019-05-30T19:30:52.009Z,4.00
2019-05-30T19:35:55.792Z,4.50
2019-05-30T19:40:59.565Z,3.75
2019-05-30T19:46:03.318Z,3.00
2019-05-30T19:51:07.102Z,5.00
2019-05-30T19:56:10.890Z,3.00
2019-05-30T20:06:25.035Z,4.00
2019-05-30T20:11:28.798Z,3.40
2019-05-30T20:16:33.776Z,3.00
2019-05-30T20:21:37.881Z,3.75
2019-05-30T20:26:42.783Z,4.00
2019-05-30T20:31:46.653Z,3.00
2019-05-30T20:36:50.416Z,4.00
2019-05-30T20:41:54.292Z,3.00
2019-05-30T20:46:58.053Z,4.00
2019-05-30T20:52:01.805Z,3.00
2019-05-30T20:57:05.566Z,3.00
2019-05-30T21:02:09.323Z,3.75
2019-05-30T21:07:13.068Z,3.00
2019-05-30T21:12:36.173Z,3.00
2019-05-30T21:17:23.754Z,3.00
2019-05-30T21:22:27.571Z,4.00
2019-05-30T21:27:31.343Z,3.00
2019-05-30T21:32:35.230Z,3.00
2019-05-30T21:37:40.224Z,3.00
2019-05-30T21:42:58.181Z,3.00
2019-05-30T21:47:49.493Z,3.00
2019-05-30T21:52:53.281Z,3.50
2019-05-30T21:57:57.055Z,3.50
2019-05-30T22:03:00.849Z,3.00
2019-05-30T22:08:04.611Z,3.00
2019-05-30T22:13:09.717Z,2.00
2019-05-30T22:18:13.737Z,3.00
2019-05-30T22:23:17.518Z,3.80
2019-05-30T22:28:21.289Z,3.00
2019-05-30T22:33:25.150Z,3.00
2019-05-30T22:38:28.922Z,3.00
2019-05-30T22:43:32.833Z,2.50
2019-05-30T22:48:36.601Z,3.00
2019-05-30T22:53:40.415Z,2.60
2019-05-30T22:58:45.447Z,3.00
2019-05-30T23:03:49.560Z,3.00
2019-05-30T23:08:54.712Z,2.00
2019-05-30T23:13:58.610Z,2.75
2019-05-30T23:19:02.388Z,3.00
2019-05-30T23:24:06.276Z,3.00
2019-05-30T23:29:10.046Z,2.00
2019-05-30T23:34:13.925Z,2.00
2019-05-30T23:39:17.744Z,2.00
2019-05-30T23:44:21.612Z,3.00
2019-05-30T23:49:25.382Z,2.00
2019-05-30T23:54:29.178Z,2.20
2019-05-30T23:59:33.050Z,2.50
